createdAt,value
2022-11-10T00:49:05.186Z,10.40
2022-11-10T00:51:32.129Z,10.50
2022-11-10T00:53:59.056Z,10.50
2022-11-10T00:56:26.597Z,10.50
2022-11-10T00:58:53.563Z,10.50
2022-11-10T01:01:22.443Z,10.50
2022-11-10T01:03:49.437Z,10.50
2022-11-10T01:06:18.108Z,10.50
2022-11-10T01:08:45.373Z,10.50
2022-11-10T01:11:21.066Z,10.50
2022-11-10T01:13:49.699Z,10.50
2022-11-10T01:16:19.429Z,10.50
2022-11-10T01:18:50.859Z,10.50
2022-11-10T01:21:18.178Z,10.50
2022-11-10T01:23:45.468Z,10.50
2022-11-10T01:26:13.280Z,10.50
2022-11-10T01:28:40.309Z,10.40
2022-11-10T01:31:10.005Z,10.40
2022-11-10T01:33:36.911Z,10.30
2022-11-10T01:36:04.009Z,10.20
2022-11-10T01:38:33.946Z,10.20
2022-11-10T01:41:03.228Z,10.10
2022-11-10T01:43:30.429Z,10.00
2022-11-10T01:46:05.209Z,9.90
2022-11-10T01:48:52.420Z,9.80
2022-11-10T01:51:25.236Z,9.60
2022-11-10T01:53:58.892Z,9.50
2022-11-10T01:56:28.194Z,9.40
2022-11-10T01:58:59.823Z,9.30
2022-11-10T02:01:27.305Z,9.20
2022-11-10T02:03:59.052Z,9.10
2022-11-10T02:06:28.683Z,9.00
2022-11-10T02:08:56.979Z,8.90
2022-11-10T02:11:23.967Z,8.80
2022-11-10T02:13:51.551Z,8.80
2022-11-10T02:16:19.232Z,8.70
2022-11-10T02:18:46.187Z,8.60
2022-11-10T02:21:17.935Z,8.60
2022-11-10T02:23:53.525Z,8.50
2022-11-10T02:26:27.981Z,8.50
2022-11-10T02:28:55.424Z,8.40
2022-11-10T02:31:22.274Z,8.30
2022-11-10T02:33:49.018Z,8.30
2022-11-10T02:36:15.850Z,8.30
2022-11-10T02:38:42.700Z,8.30
2022-11-10T02:41:10.312Z,8.30
2022-11-10T02:43:38.443Z,8.30
2022-11-10T02:46:05.633Z,8.20
2022-11-10T02:48:32.675Z,8.20
2022-11-10T02:50:59.585Z,8.20
2022-11-10T02:53:26.566Z,8.20
2022-11-10T02:55:53.388Z,8.10
2022-11-10T02:58:20.346Z,8.10
2022-11-10T03:00:47.933Z,8.10
2022-11-10T03:03:14.880Z,8.10
2022-11-10T03:05:41.869Z,8.00
2022-11-10T03:08:08.951Z,7.90
2022-11-10T03:10:36.744Z,7.90
2022-11-10T03:13:03.751Z,7.80
2022-11-10T03:15:30.863Z,7.80
2022-11-10T03:18:02.468Z,7.70
2022-11-10T03:20:29.291Z,7.80
2022-11-10T03:23:04.079Z,7.80
2022-11-10T03:25:31.122Z,7.80
2022-11-10T03:27:58.096Z,7.70
2022-11-10T03:30:24.970Z,7.70
2022-11-10T03:32:51.939Z,7.60
2022-11-10T03:35:18.973Z,7.60
2022-11-10T03:37:45.863Z,7.60
2022-11-10T03:40:12.996Z,7.60
2022-11-10T03:42:44.834Z,7.50
2022-11-10T03:45:15.883Z,7.50
2022-11-10T03:47:50.043Z,7.50
2022-11-10T03:50:17.531Z,7.50
2022-11-10T03:52:45.623Z,7.50
2022-11-10T03:55:15.815Z,7.60
2022-11-10T03:57:44.215Z,7.70
2022-11-10T04:00:13.832Z,7.70
2022-11-10T04:02:41.638Z,7.80
2022-11-10T04:05:28.023Z,7.80
2022-11-10T04:08:20.169Z,7.80
2022-11-10T04:10:50.230Z,7.90
2022-11-10T04:13:35.610Z,7.90
2022-11-10T04:16:02.455Z,7.90
2022-11-10T04:18:29.891Z,8.00
2022-11-10T04:21:02.090Z,8.00
2022-11-10T04:23:34.900Z,8.00
2022-11-10T04:26:27.103Z,7.90
2022-11-10T04:28:59.425Z,7.90
2022-11-10T04:31:29.067Z,8.00
2022-11-10T04:33:56.314Z,7.90
2022-11-10T04:36:26.057Z,8.00
2022-11-10T04:38:53.116Z,7.90
2022-11-10T04:41:20.036Z,7.80
2022-11-10T04:43:46.990Z,7.80
2022-11-10T04:46:37.323Z,7.80
2022-11-10T04:49:06.954Z,7.90
2022-11-10T04:51:37.761Z,7.90
2022-11-10T04:54:06.537Z,7.90
2022-11-10T04:56:37.263Z,7.80
2022-11-10T04:59:04.183Z,7.70
2022-11-10T05:01:31.631Z,7.60
2022-11-10T05:03:58.548Z,7.60
2022-11-10T05:06:25.583Z,7.60
2022-11-10T05:08:52.871Z,7.70
2022-11-10T05:11:19.867Z,7.90
2022-11-10T05:13:47.076Z,7.90
2022-11-10T05:16:14.098Z,8.00
2022-11-10T05:18:41.955Z,8.10
2022-11-10T05:21:09.008Z,8.10
2022-11-10T05:23:40.333Z,8.10
2022-11-10T05:26:12.780Z,8.10
2022-11-10T05:28:41.361Z,8.20
2022-11-10T05:31:08.718Z,8.20
2022-11-10T05:33:36.625Z,8.10
2022-11-10T05:36:04.584Z,8.10
2022-11-10T05:38:31.958Z,8.00
2022-11-10T05:40:59.098Z,7.90
2022-11-10T05:43:26.703Z,7.80
2022-11-10T05:45:53.809Z,7.80
2022-11-10T05:48:20.614Z,7.70
2022-11-10T05:50:47.570Z,7.60
2022-11-10T05:53:14.574Z,7.50
2022-11-10T05:55:41.530Z,7.40
2022-11-10T05:58:09.006Z,7.40
2022-11-10T06:00:36.038Z,7.40
2022-11-10T06:03:21.828Z,7.30
2022-11-10T06:05:49.009Z,7.30
2022-11-10T06:08:17.855Z,7.30
2022-11-10T06:10:44.827Z,7.20
2022-11-10T06:13:12.017Z,7.10
2022-11-10T06:15:39.078Z,7.10
2022-11-10T06:18:06.601Z,7.10
2022-11-10T06:20:33.831Z,7.20
2022-11-10T06:23:06.406Z,7.10
2022-11-10T06:25:35.671Z,7.10
2022-11-10T06:28:03.115Z,7.10
2022-11-10T06:30:31.699Z,7.00
2022-11-10T06:32:59.129Z,7.00
2022-11-10T06:35:27.283Z,6.90
2022-11-10T06:38:00.923Z,6.90
2022-11-10T06:40:28.547Z,6.90
2022-11-10T06:42:55.924Z,6.90
2022-11-10T06:45:23.790Z,6.90
2022-11-10T06:48:03.701Z,6.80
2022-11-10T06:50:31.248Z,6.80
2022-11-10T06:52:59.569Z,6.80
2022-11-10T06:55:26.993Z,6.90
2022-11-10T06:57:54.610Z,7.00
2022-11-10T07:00:22.110Z,7.00
2022-11-10T07:02:57.978Z,7.00
2022-11-10T07:05:24.806Z,7.10
2022-11-10T07:07:52.037Z,7.00
2022-11-10T07:10:18.952Z,7.00
2022-11-10T07:12:45.894Z,7.00
2022-11-10T07:15:12.774Z,7.10
2022-11-10T07:17:41.163Z,7.00
2022-11-10T07:20:09.004Z,7.00
2022-11-10T07:22:35.842Z,7.10
2022-11-10T07:25:02.790Z,7.10
2022-11-10T07:27:29.713Z,7.20
2022-11-10T07:29:56.705Z,7.20
2022-11-10T07:32:23.552Z,7.20
2022-11-10T07:34:50.455Z,7.30
2022-11-10T07:37:17.495Z,7.40
2022-11-10T07:39:44.403Z,7.50
2022-11-10T07:42:11.309Z,7.60
2022-11-10T07:44:38.204Z,7.60
2022-11-10T07:47:05.243Z,7.70
2022-11-10T07:49:32.229Z,7.70
2022-11-10T07:51:59.127Z,7.70
2022-11-10T07:54:26.018Z,7.70
2022-11-10T07:56:53.437Z,7.70
2022-11-10T07:59:20.286Z,7.80
2022-11-10T08:01:47.704Z,7.80
2022-11-10T08:04:14.831Z,7.90
2022-11-10T08:06:42.003Z,7.90
2022-11-10T08:09:09.123Z,8.00
2022-11-10T08:11:35.934Z,8.10
2022-11-10T08:14:02.838Z,8.20
2022-11-10T08:16:29.803Z,8.30
2022-11-10T08:18:56.673Z,8.30
2022-11-10T08:21:23.553Z,8.40
2022-11-10T08:23:50.446Z,8.50
2022-11-10T08:26:18.870Z,8.50
2022-11-10T08:28:45.740Z,8.70
2022-11-10T08:31:12.641Z,8.70
2022-11-10T08:33:39.535Z,8.80
2022-11-10T08:36:06.723Z,8.90
2022-11-10T08:38:33.615Z,8.90
2022-11-10T08:41:00.555Z,9.00
2022-11-10T08:43:28.448Z,9.10
2022-11-10T08:45:59.513Z,9.20
2022-11-10T08:48:26.374Z,9.20
2022-11-10T08:50:53.411Z,9.30
2022-11-10T08:53:24.878Z,9.30
2022-11-10T08:55:53.460Z,9.40
2022-11-10T08:58:23.867Z,9.40
2022-11-10T09:00:51.380Z,9.50
2022-11-10T09:03:21.678Z,9.60
2022-11-10T09:05:55.062Z,9.60
2022-11-10T09:08:24.902Z,9.80
2022-11-10T09:10:51.828Z,10.20
2022-11-10T09:13:26.043Z,10.50
2022-11-10T09:15:56.672Z,10.80
2022-11-10T09:18:23.567Z,10.90
2022-11-10T09:20:50.422Z,11.00
2022-11-10T09:23:19.636Z,11.00
2022-11-10T09:25:52.497Z,11.10
2022-11-10T09:28:20.171Z,11.20
2022-11-10T09:30:48.700Z,11.10
2022-11-10T09:33:16.182Z,11.00
2022-11-10T09:35:43.729Z,10.90
2022-11-10T09:38:11.974Z,10.80
2022-11-10T09:40:44.525Z,10.80
2022-11-10T09:43:20.449Z,10.90
2022-11-10T09:45:51.428Z,11.00
2022-11-10T09:48:34.475Z,11.10
2022-11-10T09:51:12.810Z,11.20
2022-11-10T09:53:51.040Z,11.30
2022-11-10T09:56:26.150Z,11.40
2022-11-10T09:58:53.084Z,11.40
2022-11-10T10:01:36.508Z,11.40
2022-11-10T10:04:09.798Z,11.50
2022-11-10T10:07:11.233Z,11.60
2022-11-10T10:09:52.663Z,11.70
2022-11-10T10:12:37.382Z,11.90
2022-11-10T10:15:25.724Z,12.10
2022-11-10T10:18:02.611Z,12.40
2022-11-10T10:20:46.638Z,12.50
2022-11-10T10:23:19.102Z,12.80
2022-11-10T10:25:46.503Z,13.10
2022-11-10T10:28:19.462Z,13.30
2022-11-10T10:30:46.827Z,13.60
2022-11-10T10:33:20.522Z,13.70
2022-11-10T10:35:50.107Z,13.80
2022-11-10T10:38:27.976Z,13.90
2022-11-10T10:41:00.517Z,14.10
2022-11-10T10:43:27.407Z,14.20
2022-11-10T10:46:12.281Z,14.30
2022-11-10T10:48:39.141Z,14.20
2022-11-10T10:51:06.000Z,14.00
2022-11-10T10:53:32.987Z,14.00
2022-11-10T10:56:14.146Z,14.40
2022-11-10T10:59:02.223Z,14.70
2022-11-10T11:01:37.550Z,14.80
2022-11-10T11:04:29.299Z,15.10
2022-11-10T11:06:58.790Z,15.20
2022-11-10T11:09:38.440Z,15.30
2022-11-10T11:12:09.095Z,15.30
2022-11-10T11:14:36.034Z,15.00
2022-11-10T11:17:12.798Z,15.10
2022-11-10T11:19:40.330Z,15.30
2022-11-10T11:22:16.063Z,15.40
2022-11-10T11:24:51.859Z,15.40
2022-11-10T11:27:33.969Z,15.50
2022-11-10T11:30:06.334Z,15.60
2022-11-10T11:32:39.382Z,15.70
2022-11-10T11:35:12.300Z,16.00
2022-11-10T11:37:56.740Z,16.10
2022-11-10T11:40:50.106Z,16.20
2022-11-10T11:43:47.139Z,16.30
2022-11-10T11:46:32.815Z,16.80
2022-11-10T11:49:06.337Z,16.50
2022-11-10T11:51:49.491Z,16.00
2022-11-10T11:54:44.455Z,16.10
2022-11-10T11:57:43.887Z,16.40
2022-11-10T12:00:18.374Z,16.50
2022-11-10T12:03:03.524Z,16.70
2022-11-10T12:05:55.251Z,17.20
2022-11-10T12:08:34.043Z,17.00
2022-11-10T12:11:16.395Z,16.90
2022-11-10T12:13:43.314Z,17.10
2022-11-10T12:16:39.128Z,17.10
2022-11-10T12:19:14.903Z,16.90
2022-11-10T12:21:56.177Z,16.90
2022-11-10T12:24:40.508Z,17.20
2022-11-10T12:27:12.945Z,17.40
2022-11-10T12:29:46.099Z,17.50
2022-11-10T12:32:17.794Z,17.30
2022-11-10T12:34:53.718Z,17.30
2022-11-10T12:37:30.889Z,17.50
2022-11-10T12:40:03.764Z,17.60
2022-11-10T12:42:33.968Z,17.90
2022-11-10T12:45:05.553Z,17.70
2022-11-10T12:47:41.233Z,17.80
2022-11-10T12:50:19.937Z,17.80
2022-11-10T12:53:03.235Z,18.20
2022-11-10T12:55:37.355Z,18.30
2022-11-10T12:58:14.153Z,18.40
2022-11-10T13:01:07.669Z,18.50
2022-11-10T13:03:41.210Z,17.90
2022-11-10T13:06:28.604Z,17.60
2022-11-10T13:09:03.005Z,17.90
2022-11-10T13:11:42.507Z,17.50
2022-11-10T13:14:33.658Z,17.90
2022-11-10T13:17:01.044Z,18.30
2022-11-10T13:19:28.076Z,18.70
2022-11-10T13:22:06.396Z,18.50
2022-11-10T13:24:34.785Z,18.40
2022-11-10T13:27:08.488Z,18.20
2022-11-10T13:29:55.092Z,17.90
2022-11-10T13:32:33.396Z,17.80
2022-11-10T13:35:28.672Z,17.70
2022-11-10T13:37:57.419Z,18.00
2022-11-10T13:40:24.468Z,18.10
2022-11-10T13:42:57.290Z,17.70
2022-11-10T13:45:54.295Z,17.60
2022-11-10T13:48:58.992Z,17.50
2022-11-10T13:51:55.702Z,17.10
2022-11-10T13:54:55.050Z,17.60
2022-11-10T13:57:29.155Z,17.60
2022-11-10T14:00:03.452Z,17.40
2022-11-10T14:02:39.542Z,17.70
2022-11-10T14:05:12.983Z,17.70
2022-11-10T14:07:50.776Z,17.80
2022-11-10T14:10:35.334Z,18.30
2022-11-10T14:13:11.572Z,18.20
2022-11-10T14:15:46.513Z,17.70
2022-11-10T14:18:25.253Z,17.30
2022-11-10T14:21:01.187Z,17.50
2022-11-10T14:23:54.571Z,17.80
2022-11-10T14:26:38.026Z,17.80
2022-11-10T14:29:43.341Z,17.70
2022-11-10T14:32:23.380Z,18.00
2022-11-10T14:34:52.461Z,17.80
2022-11-10T14:37:29.239Z,17.30
2022-11-10T14:40:04.750Z,17.50
2022-11-10T14:42:33.551Z,17.20
2022-11-10T14:45:27.277Z,17.00
2022-11-10T14:48:04.109Z,17.20
2022-11-10T14:50:34.576Z,17.30
2022-11-10T14:53:25.999Z,17.00
2022-11-10T14:55:54.968Z,16.70
2022-11-10T14:58:28.194Z,16.60
2022-11-10T15:00:55.401Z,16.80
2022-11-10T15:03:37.771Z,16.70
2022-11-10T15:06:08.676Z,16.30
2022-11-10T15:08:36.530Z,16.10
2022-11-10T15:11:07.484Z,16.00
2022-11-10T15:13:39.504Z,16.00
2022-11-10T15:16:30.762Z,15.70
2022-11-10T15:19:20.794Z,15.30
2022-11-10T15:21:48.136Z,15.10
2022-11-10T15:24:16.340Z,14.80
2022-11-10T15:26:43.555Z,14.60
2022-11-10T15:29:21.345Z,14.50
2022-11-10T15:31:49.104Z,14.50
2022-11-10T15:34:42.374Z,14.20
2022-11-10T15:37:30.836Z,14.10
2022-11-10T15:40:32.719Z,13.80
2022-11-10T15:43:25.128Z,13.50
2022-11-10T15:46:01.836Z,13.40
2022-11-10T15:48:49.776Z,13.20
2022-11-10T15:51:24.668Z,13.10
2022-11-10T15:53:54.540Z,13.00
2022-11-10T15:56:27.388Z,12.80
2022-11-10T15:59:00.704Z,12.80
2022-11-10T16:01:31.331Z,12.60
2022-11-10T16:03:58.689Z,12.50
2022-11-10T16:06:25.836Z,12.40
2022-11-10T16:08:52.928Z,12.30
2022-11-10T16:11:21.594Z,12.20
2022-11-10T16:13:50.533Z,12.10
2022-11-10T16:16:19.509Z,12.00
2022-11-10T16:18:47.514Z,12.00
2022-11-10T16:21:25.058Z,11.90
2022-11-10T16:23:53.303Z,11.80
2022-11-10T16:26:23.994Z,11.80
2022-11-10T16:28:51.539Z,11.70
2022-11-10T16:31:22.363Z,11.70
2022-11-10T16:33:49.855Z,11.60
2022-11-10T16:36:26.565Z,11.50
2022-11-10T16:38:54.533Z,11.40
2022-11-10T16:41:22.287Z,11.30
2022-11-10T16:43:49.964Z,11.20
2022-11-10T16:46:26.802Z,11.20
2022-11-10T16:48:57.702Z,11.20
2022-11-10T16:51:31.161Z,11.00
2022-11-10T16:53:59.687Z,11.00
2022-11-10T16:56:27.476Z,11.00
2022-11-10T16:58:54.712Z,11.00
2022-11-10T17:01:28.601Z,11.00
2022-11-10T17:04:02.459Z,10.90
2022-11-10T17:06:30.765Z,10.80
2022-11-10T17:09:07.337Z,10.80
2022-11-10T17:11:34.789Z,10.70
2022-11-10T17:14:01.783Z,10.70
2022-11-10T17:16:37.099Z,10.60
2022-11-10T17:19:06.724Z,10.60
2022-11-10T17:21:36.446Z,10.60
2022-11-10T17:24:05.123Z,10.60
2022-11-10T17:26:34.362Z,10.50
2022-11-10T17:29:01.431Z,10.40
2022-11-10T17:31:28.490Z,10.40
2022-11-10T17:33:55.886Z,10.40
2022-11-10T17:36:24.444Z,10.30
2022-11-10T17:38:52.886Z,10.30
2022-11-10T17:41:20.612Z,10.30
2022-11-10T17:43:47.951Z,10.30
2022-11-10T17:46:15.413Z,10.20
2022-11-10T17:48:43.013Z,10.10
2022-11-10T17:51:20.055Z,10.10
2022-11-10T17:53:47.288Z,10.10
2022-11-10T17:56:14.293Z,10.10
2022-11-10T17:58:41.477Z,10.00
2022-11-10T18:01:17.738Z,10.00
2022-11-10T18:03:46.481Z,10.00
2022-11-10T18:06:18.067Z,10.00
2022-11-10T18:08:45.984Z,10.00
2022-11-10T18:11:15.541Z,10.00
2022-11-10T18:13:43.289Z,10.00
2022-11-10T18:16:12.844Z,10.00
2022-11-10T18:18:40.527Z,10.00
2022-11-10T18:21:07.698Z,9.90
2022-11-10T18:23:35.057Z,9.90
2022-11-10T18:26:07.193Z,9.80
2022-11-10T18:28:35.293Z,9.80
2022-11-10T18:31:10.564Z,9.70
2022-11-10T18:33:38.194Z,9.70
2022-11-10T18:36:06.567Z,9.70
2022-11-10T18:38:33.671Z,9.70
2022-11-10T18:41:27.171Z,9.70
2022-11-10T18:43:54.139Z,9.60
2022-11-10T18:46:21.219Z,9.60
2022-11-10T18:48:48.305Z,9.60
2022-11-10T18:51:16.397Z,9.50
2022-11-10T18:53:43.493Z,9.50
2022-11-10T18:56:10.695Z,9.40
2022-11-10T18:58:39.117Z,9.40
2022-11-10T19:01:09.074Z,9.40
2022-11-10T19:03:36.916Z,9.40
2022-11-10T19:06:05.645Z,9.40
2022-11-10T19:08:32.792Z,9.40
2022-11-10T19:10:59.943Z,9.40
2022-11-10T19:13:27.102Z,9.30
2022-11-10T19:15:56.002Z,9.30
2022-11-10T19:18:22.974Z,9.30
2022-11-10T19:20:50.198Z,9.20
2022-11-10T19:23:17.934Z,9.20
2022-11-10T19:25:45.192Z,9.20
2022-11-10T19:28:12.297Z,9.20
2022-11-10T19:30:39.972Z,9.10
2022-11-10T19:33:07.108Z,9.10
2022-11-10T19:35:34.426Z,9.00
2022-11-10T19:38:01.320Z,9.00
2022-11-10T19:40:28.155Z,9.00
2022-11-10T19:42:55.272Z,8.90
2022-11-10T19:45:22.291Z,8.80
2022-11-10T19:47:49.283Z,8.90
2022-11-10T19:50:16.449Z,8.90
2022-11-10T19:52:43.393Z,8.90
2022-11-10T19:55:10.399Z,8.90
2022-11-10T19:57:37.777Z,8.80
2022-11-10T20:00:06.966Z,8.90
2022-11-10T20:02:34.456Z,8.90
2022-11-10T20:05:14.324Z,8.90
2022-11-10T20:07:59.851Z,8.80
2022-11-10T20:10:29.310Z,8.80
2022-11-10T20:12:56.829Z,8.90
2022-11-10T20:15:23.806Z,8.80
2022-11-10T20:17:50.837Z,8.80
2022-11-10T20:20:17.870Z,8.80
2022-11-10T20:22:44.892Z,8.80
2022-11-10T20:25:12.069Z,8.80
2022-11-10T20:27:39.057Z,8.60
2022-11-10T20:30:06.485Z,8.50
2022-11-10T20:32:33.633Z,8.30
2022-11-10T20:35:00.805Z,8.30
2022-11-10T20:37:31.414Z,8.30
2022-11-10T20:39:58.664Z,8.30
2022-11-10T20:42:25.729Z,8.20
2022-11-10T20:44:52.760Z,8.20
2022-11-10T20:47:20.248Z,8.20
2022-11-10T20:49:49.259Z,8.20
2022-11-10T20:52:16.672Z,8.20
2022-11-10T20:54:44.557Z,8.10
2022-11-10T20:57:11.826Z,8.10
2022-11-10T20:59:38.732Z,8.10
2022-11-10T21:02:06.006Z,8.00
2022-11-10T21:04:33.277Z,8.00
2022-11-10T21:07:00.956Z,8.00
2022-11-10T21:09:28.078Z,8.10
2022-11-10T21:12:13.680Z,8.00
2022-11-10T21:14:40.636Z,8.00
2022-11-10T21:17:07.610Z,8.00
2022-11-10T21:19:35.493Z,8.00
2022-11-10T21:22:03.261Z,8.00
2022-11-10T21:24:30.305Z,8.00
2022-11-10T21:26:58.349Z,8.00
2022-11-10T21:29:25.499Z,8.00
2022-11-10T21:31:52.748Z,7.90
2022-11-10T21:34:23.523Z,7.90
2022-11-10T21:36:50.514Z,7.90
2022-11-10T21:39:17.536Z,7.80
2022-11-10T21:41:44.554Z,7.80
2022-11-10T21:44:11.442Z,7.80
2022-11-10T21:46:38.719Z,7.80
2022-11-10T21:49:08.271Z,7.70
2022-11-10T21:51:35.582Z,7.60
2022-11-10T21:54:02.686Z,7.60
2022-11-10T21:56:32.579Z,7.60
2022-11-10T21:58:59.642Z,7.50
2022-11-10T22:01:27.756Z,7.50
2022-11-10T22:03:54.848Z,7.50
2022-11-10T22:06:22.139Z,7.50
2022-11-10T22:08:49.048Z,7.50
2022-11-10T22:11:38.246Z,7.40
2022-11-10T22:14:30.970Z,7.30
2022-11-10T22:17:16.372Z,7.30
2022-11-10T22:19:44.577Z,7.20
2022-11-10T22:22:14.657Z,7.20
2022-11-10T22:24:41.759Z,7.20
2022-11-10T22:27:08.642Z,7.20
2022-11-10T22:29:37.437Z,7.10
2022-11-10T22:32:04.687Z,7.10
2022-11-10T22:34:31.476Z,7.10
2022-11-10T22:36:59.852Z,7.10
2022-11-10T22:39:49.621Z,7.10
2022-11-10T22:42:35.292Z,7.10
2022-11-10T22:45:02.363Z,7.10
2022-11-10T22:47:49.395Z,7.00
2022-11-10T22:50:16.465Z,7.00
2022-11-10T22:52:43.598Z,7.00
2022-11-10T22:55:10.663Z,7.00
2022-11-10T22:57:37.549Z,7.00
2022-11-10T23:00:05.188Z,7.00
2022-11-10T23:02:32.081Z,7.00
2022-11-10T23:04:59.138Z,7.00
2022-11-10T23:07:26.055Z,6.90
2022-11-10T23:09:53.035Z,6.90
2022-11-10T23:12:20.174Z,6.90
2022-11-10T23:14:47.331Z,6.90
2022-11-10T23:17:14.426Z,6.80
2022-11-10T23:19:41.436Z,6.80
2022-11-10T23:22:08.544Z,6.80
2022-11-10T23:24:35.533Z,6.80
2022-11-10T23:27:02.685Z,6.70
2022-11-10T23:29:29.922Z,6.70
2022-11-10T23:31:57.072Z,6.70
2022-11-10T23:34:24.551Z,6.70
2022-11-10T23:36:51.786Z,6.70
2022-11-10T23:39:19.345Z,6.60
2022-11-10T23:41:46.504Z,6.60
2022-11-10T23:44:13.609Z,6.60
2022-11-10T23:46:40.694Z,6.50
2022-11-10T23:49:07.540Z,6.50
2022-11-10T23:51:34.900Z,6.50
2022-11-10T23:54:02.598Z,6.50
2022-11-10T23:56:30.159Z,6.40
2022-11-10T23:58:57.184Z,6.40
